createdAt,value
2017-10-14T00:00:13.845Z,92.91
2017-10-14T00:00:39.991Z,92.82
2017-10-14T00:01:06.139Z,92.53
2017-10-14T00:01:32.291Z,92.82
2017-10-14T00:01:58.444Z,93.01
2017-10-14T00:02:24.591Z,92.86
2017-10-14T00:02:50.734Z,93.2
2017-10-14T00:03:16.890Z,93.2
2017-10-14T00:03:43.032Z,93.1
2017-10-14T00:04:09.203Z,92.72
2017-10-14T00:04:35.363Z,93.3
2017-10-14T00:05:01.505Z,92.77
2017-10-14T00:05:27.646Z,93.06
2017-10-14T00:05:53.804Z,92.96
2017-10-14T00:06:19.948Z,92.96
2017-10-14T00:06:46.107Z,93.15
2017-10-14T00:07:12.251Z,93.15
2017-10-14T00:07:38.407Z,93.25
2017-10-14T00:08:04.566Z,93.63
2017-10-14T00:08:30.703Z,93.63
2017-10-14T00:08:56.854Z,93.82
2017-10-14T00:09:22.997Z,93.73
2017-10-14T00:09:49.208Z,93.44
2017-10-14T00:10:15.343Z,93.73
2017-10-14T00:10:41.495Z,93.73
2017-10-14T00:11:07.650Z,93.82
2017-10-14T00:11:33.843Z,93.35
2017-10-14T00:11:59.991Z,93.44
2017-10-14T00:12:26.162Z,93.92
2017-10-14T00:12:52.312Z,93.92
2017-10-14T00:13:18.497Z,93.06
2017-10-14T00:13:44.666Z,93.25
2017-10-14T00:14:10.811Z,93.25
2017-10-14T00:14:36.964Z,93.25
2017-10-14T00:15:03.226Z,93.35
2017-10-14T00:15:29.406Z,93.92
2017-10-14T00:15:55.548Z,93.63
2017-10-14T00:16:21.694Z,94.31
2017-10-14T00:16:47.845Z,94.21
2017-10-14T00:17:13.989Z,93.92
2017-10-14T00:17:40.139Z,94.21
2017-10-14T00:18:06.286Z,94.02
2017-10-14T00:18:32.431Z,94.02
2017-10-14T00:18:58.588Z,94.12
2017-10-14T00:19:24.731Z,93.92
2017-10-14T00:19:50.878Z,93.63
2017-10-14T00:20:17.029Z,93.63
2017-10-14T00:20:43.199Z,93.63
2017-10-14T00:21:09.343Z,94.02
2017-10-14T00:21:35.523Z,94.4
2017-10-14T00:22:01.665Z,94.12
2017-10-14T00:22:27.823Z,94.12
2017-10-14T00:22:53.991Z,94.31
2017-10-14T00:23:20.136Z,94.31
2017-10-14T00:23:46.335Z,94.4
2017-10-14T00:24:12.478Z,94.49
2017-10-14T00:24:38.627Z,94.4
2017-10-14T00:25:04.778Z,94.49
2017-10-14T00:25:30.940Z,94.31
2017-10-14T00:25:57.130Z,94.02
2017-10-14T00:26:23.319Z,94.4
2017-10-14T00:26:49.458Z,94.59
2017-10-14T00:27:15.603Z,94.4
2017-10-14T00:27:41.758Z,94.4
2017-10-14T00:28:07.905Z,94.31
2017-10-14T00:28:34.046Z,94.31
2017-10-14T00:29:00.201Z,93.92
2017-10-14T00:29:26.351Z,94.49
2017-10-14T00:29:52.504Z,94.59
2017-10-14T00:30:18.648Z,94.69
2017-10-14T00:30:44.794Z,94.79
2017-10-14T00:31:10.951Z,94.4
2017-10-14T00:31:37.102Z,94.79
2017-10-14T00:32:03.251Z,94.98
2017-10-14T00:32:29.404Z,94.54
2017-10-14T00:32:55.551Z,94.69
2017-10-14T00:33:21.712Z,94.79
2017-10-14T00:33:47.872Z,94.69
2017-10-14T00:34:14.032Z,94.79
2017-10-14T00:34:40.188Z,94.79
2017-10-14T00:35:06.332Z,94.79
2017-10-14T00:35:32.508Z,94.49
2017-10-14T00:35:58.656Z,94.79
2017-10-14T00:36:24.796Z,94.93
2017-10-14T00:36:50.947Z,94.79
2017-10-14T00:37:17.120Z,94.45
2017-10-14T00:37:43.269Z,94.69
2017-10-14T00:38:09.417Z,95.46
2017-10-14T00:38:35.562Z,95.21
2017-10-14T00:39:01.706Z,95.51
2017-10-14T00:39:27.850Z,95.26
2017-10-14T00:39:53.997Z,94.88
2017-10-14T00:40:20.155Z,94.98
2017-10-14T00:40:46.296Z,95.41
2017-10-14T00:41:12.445Z,95.55
2017-10-14T00:41:38.617Z,95.21
2017-10-14T00:42:04.773Z,95.36
2017-10-14T00:42:30.937Z,95.46
2017-10-14T00:42:57.087Z,95.17
2017-10-14T00:43:23.234Z,95.26
2017-10-14T00:43:49.384Z,95.41
2017-10-14T00:44:15.527Z,95.51
2017-10-14T00:44:41.671Z,95.55
2017-10-14T00:45:07.824Z,94.98
2017-10-14T00:45:33.969Z,94.98
2017-10-14T00:46:00.123Z,95.41
2017-10-14T00:46:26.269Z,95.46
2017-10-14T00:46:52.431Z,95.26
2017-10-14T00:47:18.585Z,95.31
2017-10-14T00:47:44.728Z,95.46
2017-10-14T00:48:10.876Z,95.7
2017-10-14T00:48:37.027Z,95.7
2017-10-14T00:49:03.177Z,95.41
2017-10-14T00:49:29.320Z,95.7
2017-10-14T00:49:55.468Z,95.12
2017-10-14T00:50:21.617Z,95.21
2017-10-14T00:50:47.761Z,95.21
2017-10-14T00:51:13.909Z,95.31
2017-10-14T00:51:40.066Z,95.41
2017-10-14T00:52:06.209Z,95.46
2017-10-14T00:52:32.356Z,95.51
2017-10-14T00:52:58.497Z,95.46
2017-10-14T00:53:24.645Z,95.41
2017-10-14T00:53:50.793Z,95.89
2017-10-14T00:54:16.938Z,95.7
2017-10-14T00:54:43.090Z,95.98
2017-10-14T00:55:09.237Z,96.08
2017-10-14T00:55:35.383Z,95.7
2017-10-14T00:56:01.527Z,95.7
2017-10-14T00:56:27.673Z,95.89
2017-10-14T00:56:53.811Z,95.6
2017-10-14T00:57:19.958Z,95.51
2017-10-14T00:57:46.108Z,95.55
2017-10-14T00:58:12.261Z,95.55
2017-10-14T00:58:38.410Z,95.31
2017-10-14T00:59:04.562Z,94.93
2017-10-14T00:59:30.713Z,95.7
2017-10-14T00:59:56.855Z,95.89
2017-10-14T01:00:23.057Z,95.7
2017-10-14T01:00:49.202Z,95.46
2017-10-14T01:01:15.344Z,95.51
2017-10-14T01:01:41.492Z,95.41
2017-10-14T01:02:07.645Z,95.6
2017-10-14T01:02:33.793Z,95.98
2017-10-14T01:02:59.951Z,95.6
2017-10-14T01:03:26.085Z,95.6
2017-10-14T01:03:52.234Z,95.89
2017-10-14T01:04:18.378Z,96.37
2017-10-14T01:04:44.522Z,96.47
2017-10-14T01:05:10.679Z,96.27
2017-10-14T01:05:36.820Z,96.27
2017-10-14T01:06:02.964Z,96.18
2017-10-14T01:06:29.119Z,96.08
2017-10-14T01:06:55.261Z,96.85
2017-10-14T01:07:21.428Z,96.08
2017-10-14T01:07:47.577Z,96.08
2017-10-14T01:08:13.723Z,96.18
2017-10-14T01:08:39.871Z,96.08
2017-10-14T01:09:06.017Z,96.27
2017-10-14T01:09:32.169Z,96.47
2017-10-14T01:09:58.309Z,96.08
2017-10-14T01:10:24.459Z,96.18
2017-10-14T01:10:50.610Z,96.18
2017-10-14T01:11:16.752Z,96.37
2017-10-14T01:11:42.949Z,96.27
2017-10-14T01:12:09.076Z,96.27
2017-10-14T01:12:35.222Z,96.27
2017-10-14T01:13:01.372Z,96.37
2017-10-14T01:13:27.519Z,96.27
2017-10-14T01:13:53.661Z,96.27
2017-10-14T01:14:19.809Z,96.27
2017-10-14T01:14:45.961Z,96.47
2017-10-14T01:15:12.110Z,96.37
2017-10-14T01:15:38.259Z,96.47
2017-10-14T01:16:04.395Z,96.27
2017-10-14T01:16:30.548Z,96.18
2017-10-14T01:16:56.700Z,96.37
2017-10-14T01:17:22.844Z,95.79
2017-10-14T01:17:48.988Z,95.51
2017-10-14T01:18:15.137Z,95.98
2017-10-14T01:18:41.279Z,95.98
2017-10-14T01:19:07.434Z,95.89
2017-10-14T01:19:33.585Z,95.89
2017-10-14T01:19:59.753Z,95.98
2017-10-14T01:20:25.902Z,96.27
2017-10-14T01:20:52.043Z,96.37
2017-10-14T01:21:18.212Z,96.27
2017-10-14T01:21:44.363Z,96.18
2017-10-14T01:22:10.516Z,96.18
2017-10-14T01:22:36.658Z,96.27
2017-10-14T01:23:02.813Z,96.27
2017-10-14T01:23:28.996Z,96.27
2017-10-14T01:23:55.166Z,96.37
2017-10-14T01:24:21.335Z,96.27
2017-10-14T01:24:47.482Z,96.18
2017-10-14T01:25:13.625Z,95.98
2017-10-14T01:25:39.774Z,96.27
2017-10-14T01:26:05.923Z,96.08
2017-10-14T01:26:32.067Z,96.47
2017-10-14T01:26:58.244Z,96.08
2017-10-14T01:27:24.421Z,96.47
2017-10-14T01:27:50.563Z,96.56
2017-10-14T01:28:16.710Z,96.27
2017-10-14T01:28:42.873Z,95.98
2017-10-14T01:29:09.013Z,96.85
2017-10-14T01:29:35.160Z,96.47
2017-10-14T01:30:01.307Z,96.75
2017-10-14T01:30:27.478Z,96.37
2017-10-14T01:30:53.611Z,96.75
2017-10-14T01:31:19.777Z,96.08
2017-10-14T01:31:45.927Z,96.27
2017-10-14T01:32:12.073Z,96.18
2017-10-14T01:32:38.223Z,95.89
2017-10-14T01:33:04.364Z,95.89
2017-10-14T01:33:30.511Z,96.27
2017-10-14T01:33:56.659Z,95.51
2017-10-14T01:34:22.810Z,95.89
2017-10-14T01:34:48.953Z,96.18
2017-10-14T01:35:15.107Z,95.89
2017-10-14T01:35:41.252Z,95.98
2017-10-14T01:36:07.392Z,96.47
2017-10-14T01:36:33.547Z,96.18
2017-10-14T01:36:59.696Z,96.18
2017-10-14T01:37:25.837Z,96.08
2017-10-14T01:37:52.008Z,95.98
2017-10-14T01:38:18.161Z,96.27
2017-10-14T01:38:44.304Z,96.47
2017-10-14T01:39:10.455Z,95.89
2017-10-14T01:39:36.598Z,95.75
2017-10-14T01:40:02.752Z,95.89
2017-10-14T01:40:28.916Z,96.08
2017-10-14T01:40:55.058Z,96.08
2017-10-14T01:41:21.210Z,96.18
2017-10-14T01:41:47.383Z,96.37
2017-10-14T01:42:13.560Z,96.66
2017-10-14T01:42:39.707Z,95.89
2017-10-14T01:43:05.861Z,95.79
2017-10-14T01:43:31.998Z,95.89
2017-10-14T01:43:58.184Z,95.75
2017-10-14T01:44:24.327Z,95.41
2017-10-14T01:44:50.481Z,95.55
2017-10-14T01:45:16.619Z,95.75
2017-10-14T01:45:42.770Z,95.55
2017-10-14T01:46:08.911Z,95.46
2017-10-14T01:46:35.068Z,95.89
2017-10-14T01:47:01.214Z,95.98
2017-10-14T01:47:27.364Z,95.55
2017-10-14T01:47:53.511Z,95.65
2017-10-14T01:48:19.654Z,95.89
2017-10-14T01:48:45.800Z,95.79
2017-10-14T01:49:11.950Z,95.79
2017-10-14T01:49:38.096Z,96.37
2017-10-14T01:50:04.241Z,96.08
2017-10-14T01:50:30.419Z,95.84
2017-10-14T01:50:56.575Z,95.89
2017-10-14T01:51:22.717Z,95.7
2017-10-14T01:51:48.865Z,95.89
2017-10-14T01:52:15.021Z,96.18
2017-10-14T01:52:41.184Z,95.89
2017-10-14T01:53:07.335Z,96.56
2017-10-14T01:53:33.481Z,96.37
2017-10-14T01:53:59.632Z,96.27
2017-10-14T01:54:25.783Z,96.37
2017-10-14T01:54:51.921Z,96.27
2017-10-14T01:55:18.094Z,96.18
2017-10-14T01:55:44.248Z,96.27
2017-10-14T01:56:10.401Z,96.56
2017-10-14T01:56:36.571Z,96.47
2017-10-14T01:57:02.755Z,96.85
2017-10-14T01:57:28.893Z,96.37
2017-10-14T01:57:55.041Z,96.08
2017-10-14T01:58:21.195Z,96.75
2017-10-14T01:58:47.345Z,96.75
2017-10-14T01:59:13.486Z,96.75
2017-10-14T01:59:39.631Z,96.75
2017-10-14T02:00:05.786Z,96.47
2017-10-14T02:00:31.923Z,96.37
2017-10-14T02:00:58.075Z,96.66
2017-10-14T02:01:24.224Z,96.66
2017-10-14T02:01:50.368Z,96.66
2017-10-14T02:02:16.519Z,96.37
2017-10-14T02:02:42.699Z,96.47
2017-10-14T02:03:08.808Z,96.47
2017-10-14T02:03:34.951Z,96.37
2017-10-14T02:04:01.098Z,96.85
2017-10-14T02:04:27.246Z,96.85
2017-10-14T02:04:53.393Z,96.66
2017-10-14T02:05:19.534Z,96.27
2017-10-14T02:05:45.683Z,96.66
2017-10-14T02:06:11.838Z,96.27
2017-10-14T02:06:37.985Z,96.47
2017-10-14T02:07:04.135Z,95.89
2017-10-14T02:07:30.298Z,96.18
2017-10-14T02:07:56.437Z,96.27
2017-10-14T02:08:22.592Z,96.37
2017-10-14T02:08:48.742Z,96.37
2017-10-14T02:09:14.881Z,96.56
2017-10-14T02:09:41.036Z,96.08
2017-10-14T02:10:07.184Z,96.27
2017-10-14T02:10:33.327Z,96.66
2017-10-14T02:10:59.475Z,96.85
2017-10-14T02:11:25.623Z,96.37
2017-10-14T02:11:51.773Z,96.47
2017-10-14T02:12:17.914Z,96.47
2017-10-14T02:12:44.057Z,96.27
2017-10-14T02:13:10.207Z,96.56
2017-10-14T02:13:36.355Z,96.66
2017-10-14T02:14:02.499Z,96.47
2017-10-14T02:14:28.649Z,97.14
2017-10-14T02:14:54.810Z,97.14
2017-10-14T02:15:20.968Z,97.14
2017-10-14T02:15:47.110Z,96.85
2017-10-14T02:16:13.253Z,97.04
2017-10-14T02:16:39.401Z,97.04
2017-10-14T02:17:05.550Z,97.14
2017-10-14T02:17:31.701Z,97.14
2017-10-14T02:17:57.845Z,96.85
2017-10-14T02:18:23.992Z,96.94
2017-10-14T02:18:50.169Z,97.23
2017-10-14T02:19:16.323Z,97.23
2017-10-14T02:19:42.469Z,97.71
2017-10-14T02:20:08.640Z,98
2017-10-14T02:20:34.786Z,98.19
2017-10-14T02:21:00.934Z,97.23
2017-10-14T02:21:27.086Z,97.9
2017-10-14T02:21:53.226Z,97.71
2017-10-14T02:22:19.378Z,97.9
2017-10-14T02:22:45.581Z,97.81
2017-10-14T02:23:11.726Z,97.52
2017-10-14T02:23:37.873Z,97.42
2017-10-14T02:24:04.020Z,97.71
2017-10-14T02:24:30.164Z,97.81
2017-10-14T02:24:56.314Z,97.9
2017-10-14T02:25:22.460Z,97.52
2017-10-14T02:25:48.629Z,97.81
2017-10-14T02:26:14.760Z,98
2017-10-14T02:26:40.930Z,97.9
2017-10-14T02:27:07.082Z,97.81
2017-10-14T02:27:33.243Z,97.61
2017-10-14T02:27:59.374Z,97.61
2017-10-14T02:28:25.528Z,97.81
2017-10-14T02:28:51.667Z,97.9
2017-10-14T02:29:17.820Z,97.81
2017-10-14T02:29:43.960Z,98
2017-10-14T02:30:10.109Z,98
2017-10-14T02:30:36.255Z,97.61
2017-10-14T02:31:02.399Z,98.19
2017-10-14T02:31:28.546Z,98
2017-10-14T02:31:54.693Z,97.71
2017-10-14T02:32:20.845Z,97.71
2017-10-14T02:32:46.992Z,98
2017-10-14T02:33:13.136Z,97.71
2017-10-14T02:33:39.287Z,98.19
2017-10-14T02:34:05.431Z,97.23
2017-10-14T02:34:31.576Z,97.23
2017-10-14T02:34:57.747Z,97.9
2017-10-14T02:35:23.900Z,98
2017-10-14T02:35:50.047Z,97.71
2017-10-14T02:36:16.190Z,97.61
2017-10-14T02:36:42.339Z,98
2017-10-14T02:37:08.483Z,97.71
2017-10-14T02:37:34.648Z,97.9
2017-10-14T02:38:00.804Z,97.81
2017-10-14T02:38:26.951Z,97.52
2017-10-14T02:38:53.100Z,97.52
2017-10-14T02:39:19.247Z,97.52
2017-10-14T02:39:45.393Z,97.9
2017-10-14T02:40:11.539Z,98.19
2017-10-14T02:40:37.689Z,97.81
2017-10-14T02:41:03.834Z,98.1
2017-10-14T02:41:29.977Z,97.52
2017-10-14T02:41:56.126Z,97.52
2017-10-14T02:42:22.265Z,98
2017-10-14T02:42:48.421Z,97.52
2017-10-14T02:43:14.597Z,97.71
2017-10-14T02:43:40.740Z,97.81
2017-10-14T02:44:06.891Z,98.1
2017-10-14T02:44:33.040Z,98.67
2017-10-14T02:44:59.184Z,98.48
2017-10-14T02:45:25.339Z,98.19
2017-10-14T02:45:51.512Z,98.57
2017-10-14T02:46:17.658Z,98.48
2017-10-14T02:46:43.806Z,98.62
2017-10-14T02:47:09.947Z,98.28
2017-10-14T02:47:36.104Z,98.28
2017-10-14T02:48:02.272Z,98.19
2017-10-14T02:48:28.421Z,98.19
2017-10-14T02:48:54.569Z,97.9
2017-10-14T02:49:20.715Z,98.1
2017-10-14T02:49:46.895Z,98.19
2017-10-14T02:50:13.047Z,98.19
2017-10-14T02:50:39.195Z,98.48
2017-10-14T02:51:05.344Z,98.57
2017-10-14T02:51:31.491Z,98.57
2017-10-14T02:51:57.659Z,98.28
2017-10-14T02:52:23.834Z,98.57
2017-10-14T02:52:49.974Z,98.38
2017-10-14T02:53:16.125Z,97.9
2017-10-14T02:53:42.275Z,97.81
2017-10-14T02:54:08.422Z,97.9
2017-10-14T02:54:34.568Z,98.19
2017-10-14T02:55:00.719Z,97.71
2017-10-14T02:55:26.867Z,98.38
2017-10-14T02:55:53.015Z,98.48
2017-10-14T02:56:19.164Z,98.1
2017-10-14T02:56:45.306Z,98.19
2017-10-14T02:57:11.458Z,98.19
2017-10-14T02:57:37.598Z,97.71
2017-10-14T02:58:03.744Z,98.1
2017-10-14T02:58:29.899Z,97.52
2017-10-14T02:58:56.045Z,97.9
2017-10-14T02:59:22.190Z,97.71
2017-10-14T02:59:48.338Z,98.19
2017-10-14T03:00:14.479Z,98.19
2017-10-14T03:00:40.625Z,98.28
2017-10-14T03:01:06.774Z,98.28
2017-10-14T03:01:32.939Z,98.57
2017-10-14T03:01:59.095Z,98.19
2017-10-14T03:02:25.234Z,98.19
2017-10-14T03:02:51.389Z,98.38
2017-10-14T03:03:17.534Z,98.1
2017-10-14T03:03:43.715Z,98.38
2017-10-14T03:04:09.863Z,98.28
2017-10-14T03:04:36.012Z,98.19
2017-10-14T03:05:02.165Z,98.19
2017-10-14T03:05:28.306Z,98.43
2017-10-14T03:05:54.447Z,98.28
2017-10-14T03:06:20.597Z,98.28
2017-10-14T03:06:46.753Z,98.38
2017-10-14T03:07:12.895Z,98.57
2017-10-14T03:07:39.034Z,98.67
2017-10-14T03:08:05.194Z,99.19
2017-10-14T03:08:31.330Z,99.44
2017-10-14T03:08:57.480Z,99.34
2017-10-14T03:09:23.656Z,99.1
2017-10-14T03:09:49.798Z,99.19
2017-10-14T03:10:15.948Z,99.24
2017-10-14T03:10:42.089Z,99.19
2017-10-14T03:11:08.235Z,99.1
2017-10-14T03:11:34.384Z,99.1
2017-10-14T03:12:00.530Z,99.29
2017-10-14T03:12:26.679Z,98.96
2017-10-14T03:12:52.831Z,99.24
2017-10-14T03:13:18.995Z,99.24
2017-10-14T03:13:45.147Z,99.19
2017-10-14T03:14:11.289Z,99.01
2017-10-14T03:14:37.440Z,99.01
2017-10-14T03:15:03.611Z,99.01
2017-10-14T03:15:29.778Z,99.19
2017-10-14T03:15:55.930Z,99.1
2017-10-14T03:16:22.070Z,99.48
2017-10-14T03:16:48.222Z,99.19
2017-10-14T03:17:14.366Z,99.19
2017-10-14T03:17:40.518Z,99.19
2017-10-14T03:18:06.659Z,99.1
2017-10-14T03:18:32.812Z,99.01
2017-10-14T03:18:58.962Z,99.01
2017-10-14T03:19:25.103Z,99.01
2017-10-14T03:19:51.252Z,99.96
2017-10-14T03:20:17.397Z,99.68
2017-10-14T03:20:43.543Z,99.48
2017-10-14T03:21:09.696Z,99.87
2017-10-14T03:21:35.831Z,99.77
2017-10-14T03:22:01.986Z,99.77
2017-10-14T03:22:28.137Z,99.96
2017-10-14T03:22:54.290Z,99.87
2017-10-14T03:23:20.438Z,99.77
2017-10-14T03:23:46.578Z,99.77
2017-10-14T03:24:12.728Z,99.77
2017-10-14T03:24:38.874Z,99.29
2017-10-14T03:25:05.023Z,99.01
2017-10-14T03:25:31.163Z,99.1
2017-10-14T03:25:57.319Z,99.01
2017-10-14T03:26:23.461Z,99.58
2017-10-14T03:26:49.615Z,99.39
2017-10-14T03:27:15.764Z,99.01
2017-10-14T03:27:41.910Z,99.1
2017-10-14T03:28:08.060Z,99.77
2017-10-14T03:28:34.206Z,99.68
2017-10-14T03:29:00.347Z,99.58
2017-10-14T03:29:26.493Z,99.48
2017-10-14T03:29:52.639Z,99.77
2017-10-14T03:30:18.787Z,99.68
2017-10-14T03:30:44.962Z,99.19
2017-10-14T03:31:11.114Z,99.77
2017-10-14T03:31:37.290Z,99.39
2017-10-14T03:32:03.438Z,99.99
2017-10-14T03:32:29.587Z,99.68
2017-10-14T03:32:55.733Z,99.96
2017-10-14T03:33:21.877Z,99.99
2017-10-14T03:33:48.030Z,99.68
2017-10-14T03:34:14.170Z,99.48
2017-10-14T03:34:40.315Z,99.99
2017-10-14T03:35:06.465Z,99.87
2017-10-14T03:35:32.605Z,99.68
2017-10-14T03:35:58.756Z,99.87
2017-10-14T03:36:24.902Z,99.77
2017-10-14T03:36:51.054Z,99.77
2017-10-14T03:37:17.194Z,99.77
2017-10-14T03:37:43.343Z,99.77
2017-10-14T03:38:09.489Z,99.87
2017-10-14T03:38:35.634Z,99.96
2017-10-14T03:39:01.789Z,99.77
2017-10-14T03:39:27.929Z,99.87
2017-10-14T03:39:54.077Z,99.87
2017-10-14T03:40:20.233Z,99.58
2017-10-14T03:40:46.394Z,99.68
2017-10-14T03:41:12.549Z,99.77
2017-10-14T03:41:38.725Z,99.68
2017-10-14T03:42:04.863Z,99.68
2017-10-14T03:42:31.012Z,99.68
2017-10-14T03:42:57.156Z,99.58
2017-10-14T03:43:23.305Z,99.48
2017-10-14T03:43:49.474Z,99.58
2017-10-14T03:44:15.612Z,99.68
2017-10-14T03:44:41.768Z,99.68
2017-10-14T03:45:07.941Z,99.87
2017-10-14T03:45:34.091Z,99.48
2017-10-14T03:46:00.241Z,99.48
2017-10-14T03:46:26.379Z,99.68
2017-10-14T03:46:52.525Z,99.87
2017-10-14T03:47:18.684Z,99.48
2017-10-14T03:47:44.820Z,99.99
2017-10-14T03:48:10.969Z,99.99
2017-10-14T03:48:37.117Z,99.99
2017-10-14T03:49:03.283Z,99.87
2017-10-14T03:49:29.411Z,99.96
2017-10-14T03:49:55.554Z,99.99
2017-10-14T03:50:21.706Z,99.68
2017-10-14T03:50:47.856Z,99.48
2017-10-14T03:51:14.032Z,99.68
2017-10-14T03:51:40.183Z,99.99
2017-10-14T03:52:06.349Z,99.87
2017-10-14T03:52:32.490Z,99.87
2017-10-14T03:52:58.638Z,99.99
2017-10-14T03:53:24.788Z,99.99
2017-10-14T03:53:50.934Z,99.87
2017-10-14T03:54:17.081Z,99.96
2017-10-14T03:54:43.232Z,99.99
2017-10-14T03:55:09.371Z,99.99
2017-10-14T03:55:35.518Z,99.99
2017-10-14T03:56:01.668Z,99.58
2017-10-14T03:56:27.816Z,99.87
2017-10-14T03:56:53.957Z,99.48
2017-10-14T03:57:20.103Z,99.77
2017-10-14T03:57:46.257Z,99.96
2017-10-14T03:58:12.404Z,99.99
2017-10-14T03:58:38.556Z,99.99
2017-10-14T03:59:04.729Z,99.99
2017-10-14T03:59:30.874Z,99.99
2017-10-14T03:59:57.019Z,99.77
2017-10-14T04:00:23.165Z,99.99
2017-10-14T04:00:49.318Z,99.99
2017-10-14T04:01:15.457Z,99.87
2017-10-14T04:01:41.608Z,99.99
2017-10-14T04:02:07.754Z,99.99
2017-10-14T04:02:33.900Z,99.99
2017-10-14T04:03:00.049Z,99.99
2017-10-14T04:03:26.199Z,99.99
2017-10-14T04:03:52.343Z,99.99
2017-10-14T04:04:18.516Z,99.99
2017-10-14T04:04:44.670Z,99.99
2017-10-14T04:05:10.811Z,99.99
2017-10-14T04:05:36.991Z,99.99
2017-10-14T04:06:03.136Z,99.99
2017-10-14T04:06:29.279Z,99.99
2017-10-14T04:06:55.424Z,99.99
2017-10-14T04:07:21.602Z,99.99
2017-10-14T04:07:47.746Z,99.99
2017-10-14T04:08:13.887Z,99.99
2017-10-14T04:08:40.055Z,99.99
2017-10-14T04:09:06.205Z,99.99
2017-10-14T04:09:32.358Z,99.99
2017-10-14T04:09:58.504Z,99.99
2017-10-14T04:10:24.657Z,99.99
2017-10-14T04:10:50.800Z,99.99
2017-10-14T04:11:16.949Z,99.99
2017-10-14T04:11:43.096Z,99.99
2017-10-14T04:12:09.244Z,99.99
2017-10-14T04:12:35.391Z,99.99
2017-10-14T04:13:01.542Z,99.99
2017-10-14T04:13:27.686Z,99.99
2017-10-14T04:13:53.834Z,99.99
2017-10-14T04:14:19.976Z,99.99
2017-10-14T04:14:46.151Z,99.99
2017-10-14T04:15:12.318Z,99.99
2017-10-14T04:15:38.496Z,99.99
2017-10-14T04:16:04.640Z,99.99
2017-10-14T04:16:30.778Z,99.99
2017-10-14T04:16:56.931Z,99.99
2017-10-14T04:17:23.078Z,99.99
2017-10-14T04:17:49.220Z,99.99
2017-10-14T04:18:15.371Z,99.99
2017-10-14T04:18:41.523Z,99.99
2017-10-14T04:19:07.689Z,99.99
2017-10-14T04:19:33.832Z,99.99
2017-10-14T04:19:59.976Z,99.99
2017-10-14T04:20:26.122Z,99.99
2017-10-14T04:20:52.273Z,99.99
2017-10-14T04:21:18.421Z,99.99
2017-10-14T04:21:44.569Z,99.99
2017-10-14T04:22:10.732Z,99.99
2017-10-14T04:22:36.877Z,99.99
2017-10-14T04:23:03.034Z,99.99
2017-10-14T04:23:29.180Z,99.99
2017-10-14T04:23:55.327Z,99.99
2017-10-14T04:24:21.472Z,99.99
2017-10-14T04:24:47.623Z,99.99
2017-10-14T04:25:13.773Z,99.99
2017-10-14T04:25:39.954Z,99.99
2017-10-14T04:26:06.129Z,99.99
2017-10-14T04:26:32.268Z,99.99
2017-10-14T04:26:58.417Z,99.99
2017-10-14T04:27:24.564Z,99.99
2017-10-14T04:27:50.724Z,99.99
2017-10-14T04:28:16.906Z,99.99
2017-10-14T04:28:43.099Z,99.99
2017-10-14T04:29:09.243Z,99.99
2017-10-14T04:29:35.419Z,99.99
2017-10-14T04:30:01.569Z,99.99
2017-10-14T04:30:27.722Z,99.99
2017-10-14T04:30:53.867Z,99.99
2017-10-14T04:31:20.040Z,99.99
2017-10-14T04:31:46.187Z,99.99
2017-10-14T04:32:12.359Z,99.99
2017-10-14T04:32:38.502Z,99.99
2017-10-14T04:33:04.674Z,99.99
2017-10-14T04:33:30.821Z,99.99
2017-10-14T04:33:56.995Z,99.99
2017-10-14T04:34:23.142Z,99.99
2017-10-14T04:34:49.286Z,99.99
2017-10-14T04:35:15.435Z,99.99
2017-10-14T04:35:41.584Z,99.99
2017-10-14T04:36:07.777Z,99.99
2017-10-14T04:36:33.905Z,99.99
2017-10-14T04:37:00.075Z,99.99
2017-10-14T04:37:26.221Z,99.99
2017-10-14T04:37:52.370Z,99.99
2017-10-14T04:38:18.539Z,99.99
2017-10-14T04:38:44.691Z,99.99
2017-10-14T04:39:10.831Z,99.99
2017-10-14T04:39:36.985Z,99.99
2017-10-14T04:40:03.133Z,99.99
2017-10-14T04:40:29.278Z,99.99
2017-10-14T04:40:55.429Z,99.99
2017-10-14T04:41:21.575Z,99.99
2017-10-14T04:41:47.717Z,99.99
2017-10-14T04:42:13.869Z,99.99
2017-10-14T04:42:40.013Z,99.99
2017-10-14T04:43:06.163Z,99.99
2017-10-14T04:43:32.309Z,99.99
2017-10-14T04:43:58.456Z,99.99
2017-10-14T04:44:24.607Z,99.99
2017-10-14T04:44:50.749Z,99.99
2017-10-14T04:45:16.899Z,99.99
2017-10-14T04:45:43.039Z,99.99
2017-10-14T04:46:09.186Z,99.99
2017-10-14T04:46:35.336Z,99.99
2017-10-14T04:47:01.488Z,99.99
2017-10-14T04:47:27.627Z,99.99
2017-10-14T04:47:53.773Z,99.99
2017-10-14T04:48:19.929Z,99.99
2017-10-14T04:48:46.071Z,99.99
2017-10-14T04:49:12.218Z,99.99
2017-10-14T04:49:38.396Z,99.99
2017-10-14T04:50:04.544Z,99.99
2017-10-14T04:50:30.709Z,99.99
2017-10-14T04:50:56.854Z,99.99
2017-10-14T04:51:23.005Z,99.99
2017-10-14T04:51:49.146Z,99.99
2017-10-14T04:52:15.325Z,99.99
2017-10-14T04:52:41.470Z,99.99
2017-10-14T04:53:07.619Z,99.99
2017-10-14T04:53:33.758Z,99.99
2017-10-14T04:53:59.903Z,99.99
2017-10-14T04:54:26.054Z,99.99
2017-10-14T04:54:52.205Z,99.99
2017-10-14T04:55:18.353Z,99.99
2017-10-14T04:55:44.497Z,99.99
2017-10-14T04:56:10.649Z,99.99
2017-10-14T04:56:36.790Z,99.99
2017-10-14T04:57:02.932Z,99.99
2017-10-14T04:57:29.085Z,99.99
2017-10-14T04:57:55.231Z,99.99
2017-10-14T04:58:21.397Z,99.99
2017-10-14T04:58:47.542Z,99.99
2017-10-14T04:59:13.690Z,99.99
2017-10-14T04:59:39.862Z,99.99
2017-10-14T05:00:06.004Z,99.99
2017-10-14T05:00:32.156Z,99.99
2017-10-14T05:00:58.304Z,99.99
2017-10-14T05:01:24.445Z,99.99
2017-10-14T05:01:50.587Z,99.99
2017-10-14T05:02:16.737Z,99.99
2017-10-14T05:02:42.881Z,99.99
2017-10-14T05:03:09.048Z,99.99
2017-10-14T05:03:35.200Z,99.99
2017-10-14T05:04:01.348Z,99.99
2017-10-14T05:04:27.489Z,99.99
2017-10-14T05:04:53.631Z,99.99
2017-10-14T05:05:19.779Z,99.99
2017-10-14T05:05:45.930Z,99.99
2017-10-14T05:06:12.076Z,99.99
2017-10-14T05:06:38.216Z,99.99
2017-10-14T05:07:04.397Z,99.99
2017-10-14T05:07:30.546Z,99.99
2017-10-14T05:07:56.693Z,99.99
2017-10-14T05:08:22.840Z,99.99
2017-10-14T05:08:48.990Z,99.99
2017-10-14T05:09:15.131Z,99.99
2017-10-14T05:09:41.288Z,99.99
2017-10-14T05:10:07.430Z,99.99
2017-10-14T05:10:33.573Z,99.99
2017-10-14T05:10:59.731Z,99.99
2017-10-14T05:11:26.082Z,99.99
2017-10-14T05:11:52.225Z,99.99
2017-10-14T05:12:18.364Z,99.99
2017-10-14T05:12:44.517Z,99.99
2017-10-14T05:13:10.669Z,99.99
2017-10-14T05:13:36.813Z,99.99
2017-10-14T05:14:02.959Z,99.99
2017-10-14T05:14:29.103Z,99.99
2017-10-14T05:14:55.270Z,99.99
2017-10-14T05:15:21.418Z,99.99
2017-10-14T05:15:47.558Z,99.99
2017-10-14T05:16:13.709Z,99.99
2017-10-14T05:16:39.860Z,99.99
2017-10-14T05:17:06.001Z,99.99
2017-10-14T05:17:32.154Z,99.99
2017-10-14T05:17:58.299Z,99.99
2017-10-14T05:18:24.444Z,99.99
2017-10-14T05:18:50.599Z,99.99
2017-10-14T05:19:16.747Z,99.99
2017-10-14T05:19:42.886Z,99.99
2017-10-14T05:20:09.033Z,99.99
2017-10-14T05:20:35.184Z,99.99
2017-10-14T05:21:01.327Z,99.99
2017-10-14T05:21:27.476Z,99.99
2017-10-14T05:21:53.620Z,99.99
2017-10-14T05:22:19.767Z,99.99
2017-10-14T05:22:45.919Z,99.99
2017-10-14T05:23:12.067Z,99.99
2017-10-14T05:23:38.220Z,99.99
2017-10-14T05:24:04.359Z,99.99
2017-10-14T05:24:30.507Z,99.99
2017-10-14T05:24:56.674Z,99.99
2017-10-14T05:25:22.825Z,99.99
2017-10-14T05:25:48.966Z,99.99
2017-10-14T05:26:15.111Z,99.99
2017-10-14T05:26:41.263Z,99.99
2017-10-14T05:27:07.406Z,99.99
2017-10-14T05:27:33.562Z,99.99
2017-10-14T05:27:59.704Z,99.99
2017-10-14T05:28:25.879Z,99.99
2017-10-14T05:28:52.020Z,99.99
2017-10-14T05:29:18.164Z,99.99
2017-10-14T05:29:44.310Z,99.99
2017-10-14T05:30:10.484Z,99.99
2017-10-14T05:30:36.631Z,99.99
2017-10-14T05:31:02.772Z,99.99
2017-10-14T05:31:28.925Z,99.99
2017-10-14T05:31:55.067Z,99.99
2017-10-14T05:32:21.211Z,99.99
2017-10-14T05:32:47.361Z,99.99
2017-10-14T05:33:13.545Z,99.99
2017-10-14T05:33:39.688Z,99.99
2017-10-14T05:34:05.853Z,99.99
2017-10-14T05:34:32.031Z,99.99
2017-10-14T05:34:58.172Z,99.99
2017-10-14T05:35:24.351Z,99.99
2017-10-14T05:35:50.501Z,99.99
2017-10-14T05:36:16.644Z,99.99
2017-10-14T05:36:42.796Z,99.99
2017-10-14T05:37:08.937Z,99.99
2017-10-14T05:37:35.082Z,99.99
2017-10-14T05:38:01.238Z,99.99